createdAt,value
2022-12-19T00:00:09.725Z,25.70
2022-12-19T00:02:41.828Z,25.20
2022-12-19T00:05:09.177Z,21.70
2022-12-19T00:07:36.084Z,24.63
2022-12-19T00:10:03.059Z,25.57
2022-12-19T00:12:30.008Z,24.77
2022-12-19T00:14:57.027Z,26.90
2022-12-19T00:17:25.788Z,23.53
2022-12-19T00:19:52.797Z,24.93
2022-12-19T00:22:19.798Z,22.53
2022-12-19T00:24:48.594Z,23.97
2022-12-19T00:27:15.627Z,21.93
2022-12-19T00:29:42.494Z,24.17
2022-12-19T00:32:09.679Z,24.20
2022-12-19T00:34:40.283Z,24.00
2022-12-19T00:37:07.308Z,26.07
2022-12-19T00:39:34.319Z,22.07
2022-12-19T00:42:01.319Z,24.33
2022-12-19T00:44:28.249Z,20.63
2022-12-19T00:46:55.221Z,29.00
2022-12-19T00:49:22.260Z,25.37
2022-12-19T00:51:49.798Z,26.67
2022-12-19T00:54:16.823Z,24.90
2022-12-19T00:56:44.063Z,24.27
2022-12-19T00:59:10.978Z,27.03
2022-12-19T01:01:41.955Z,23.80
2022-12-19T01:04:28.177Z,22.87
2022-12-19T01:06:57.888Z,22.00
2022-12-19T01:09:30.902Z,25.30
2022-12-19T01:12:16.833Z,22.23
2022-12-19T01:14:43.896Z,23.10
2022-12-19T01:17:11.073Z,21.47
2022-12-19T01:19:43.656Z,21.30
2022-12-19T01:22:13.620Z,22.67
2022-12-19T01:24:41.082Z,19.53
2022-12-19T01:27:08.558Z,22.43
2022-12-19T01:29:37.211Z,21.77
2022-12-19T01:32:16.178Z,22.77
2022-12-19T01:34:43.143Z,22.70
2022-12-19T01:37:10.269Z,20.60
2022-12-19T01:39:37.379Z,23.77
2022-12-19T01:42:23.111Z,27.30
2022-12-19T01:45:11.208Z,19.47
2022-12-19T01:48:05.527Z,21.27
2022-12-19T01:50:58.271Z,22.80
2022-12-19T01:53:34.022Z,25.47
2022-12-19T01:56:08.009Z,22.10
2022-12-19T01:58:40.867Z,20.90
2022-12-19T02:01:08.159Z,23.00
2022-12-19T02:03:39.219Z,22.07
2022-12-19T02:06:08.120Z,23.77
2022-12-19T02:08:36.943Z,17.37
2022-12-19T02:11:04.020Z,21.70
2022-12-19T02:13:31.165Z,22.63
2022-12-19T02:16:37.806Z,20.40
2022-12-19T02:19:26.870Z,19.97
2022-12-19T02:22:27.354Z,20.57
2022-12-19T02:25:35.764Z,20.00
2022-12-19T02:28:23.992Z,18.57
2022-12-19T02:31:40.622Z,23.70
2022-12-19T02:34:33.789Z,20.73
2022-12-19T02:37:13.484Z,22.50
2022-12-19T02:39:51.129Z,22.50
2022-12-19T02:42:31.718Z,17.77
2022-12-19T02:45:01.556Z,18.80
2022-12-19T02:47:31.473Z,20.30
2022-12-19T02:49:58.602Z,22.37
2022-12-19T02:52:25.486Z,16.67
2022-12-19T02:54:57.926Z,20.23
2022-12-19T02:57:50.081Z,23.37
2022-12-19T03:00:27.295Z,22.03
2022-12-19T03:03:27.685Z,21.70
2022-12-19T03:06:14.505Z,18.63
2022-12-19T03:09:20.543Z,18.80
2022-12-19T03:12:00.258Z,21.57
2022-12-19T03:14:29.945Z,17.23
2022-12-19T03:16:57.111Z,20.20
2022-12-19T03:19:24.721Z,19.80
2022-12-19T03:21:53.067Z,19.90
2022-12-19T03:24:20.219Z,21.23
2022-12-19T03:27:02.044Z,21.47
2022-12-19T03:29:40.687Z,20.87
2022-12-19T03:32:13.075Z,20.20
2022-12-19T03:34:52.874Z,19.80
2022-12-19T03:37:24.880Z,23.20
2022-12-19T03:39:58.987Z,19.30
2022-12-19T03:42:48.186Z,22.30
2022-12-19T03:45:32.123Z,21.13
2022-12-19T03:48:06.058Z,20.50
2022-12-19T03:50:54.050Z,18.13
2022-12-19T03:53:29.929Z,22.27
2022-12-19T03:56:22.396Z,19.27
2022-12-19T03:58:58.825Z,20.87
2022-12-19T04:01:29.222Z,21.00
2022-12-19T04:03:59.365Z,21.30
2022-12-19T04:06:30.886Z,21.17
2022-12-19T04:08:59.631Z,21.37
2022-12-19T04:11:34.151Z,21.00
2022-12-19T04:14:07.990Z,15.97
2022-12-19T04:16:48.481Z,18.67
2022-12-19T04:19:54.277Z,19.93
2022-12-19T04:22:40.837Z,19.93
2022-12-19T04:25:16.723Z,23.00
2022-12-19T04:27:50.867Z,20.97
2022-12-19T04:30:19.249Z,21.00
2022-12-19T04:32:47.861Z,20.40
2022-12-19T04:35:14.886Z,21.80
2022-12-19T04:37:42.702Z,20.03
2022-12-19T04:40:11.528Z,21.23
2022-12-19T04:42:38.550Z,19.40
2022-12-19T04:45:06.956Z,22.10
2022-12-19T04:47:34.986Z,20.77
2022-12-19T04:50:02.006Z,23.17
2022-12-19T04:52:28.885Z,21.10
2022-12-19T04:54:55.844Z,19.63
2022-12-19T04:57:23.127Z,21.20
2022-12-19T04:59:50.172Z,23.27
2022-12-19T05:02:17.431Z,20.97
2022-12-19T05:04:44.678Z,20.73
2022-12-19T05:07:11.620Z,21.50
2022-12-19T05:09:38.589Z,21.97
2022-12-19T05:12:06.097Z,21.50
2022-12-19T05:14:33.620Z,23.37
2022-12-19T05:17:01.108Z,22.50
2022-12-19T05:19:29.454Z,22.83
2022-12-19T05:21:56.872Z,22.43
2022-12-19T05:24:23.846Z,19.90
2022-12-19T05:26:51.458Z,25.73
2022-12-19T05:29:18.508Z,22.57
2022-12-19T05:31:45.631Z,24.03
2022-12-19T05:34:12.658Z,21.90
2022-12-19T05:36:39.582Z,23.10
2022-12-19T05:39:06.770Z,20.87
2022-12-19T05:41:33.771Z,21.87
2022-12-19T05:44:00.937Z,20.50
2022-12-19T05:46:27.907Z,21.30
2022-12-19T05:48:55.917Z,21.40
2022-12-19T05:51:23.447Z,18.50
2022-12-19T05:53:50.460Z,24.37
2022-12-19T05:56:21.775Z,20.77
2022-12-19T05:58:50.183Z,20.30
2022-12-19T06:01:24.728Z,21.53
2022-12-19T06:03:52.526Z,23.23
2022-12-19T06:06:24.311Z,21.33
2022-12-19T06:08:59.507Z,21.80
2022-12-19T06:11:27.484Z,22.37
2022-12-19T06:13:54.573Z,22.10
2022-12-19T06:16:23.770Z,20.83
2022-12-19T06:18:51.552Z,21.53
2022-12-19T06:21:22.451Z,20.20
2022-12-19T06:23:49.853Z,20.80
2022-12-19T06:26:20.824Z,21.33
2022-12-19T06:28:50.185Z,21.93
2022-12-19T06:31:19.108Z,22.03
2022-12-19T06:33:46.385Z,24.03
2022-12-19T06:36:22.035Z,21.27
2022-12-19T06:38:50.745Z,23.57
2022-12-19T06:41:37.556Z,23.37
2022-12-19T06:44:08.350Z,23.83
2022-12-19T06:46:37.561Z,21.07
2022-12-19T06:49:05.947Z,23.80
2022-12-19T06:51:33.221Z,19.40
2022-12-19T06:54:00.267Z,23.83
2022-12-19T06:56:28.295Z,22.10
2022-12-19T06:58:55.220Z,21.50
2022-12-19T07:01:29.297Z,22.90
2022-12-19T07:03:56.780Z,23.40
2022-12-19T07:06:24.182Z,22.73
2022-12-19T07:08:51.178Z,21.33
2022-12-19T07:11:18.140Z,26.30
2022-12-19T07:13:45.032Z,21.87
2022-12-19T07:16:12.107Z,24.80
2022-12-19T07:18:41.272Z,24.70
2022-12-19T07:21:11.489Z,24.37
2022-12-19T07:23:39.529Z,22.10
2022-12-19T07:26:06.563Z,23.87
2022-12-19T07:28:35.195Z,22.97
2022-12-19T07:31:02.263Z,23.83
2022-12-19T07:33:29.238Z,27.20
2022-12-19T07:35:56.279Z,24.63
2022-12-19T07:38:23.244Z,23.03
2022-12-19T07:40:50.227Z,25.57
2022-12-19T07:43:17.179Z,27.87
2022-12-19T07:45:44.295Z,28.33
2022-12-19T07:48:11.315Z,23.97
2022-12-19T07:50:38.265Z,25.17
2022-12-19T07:53:05.352Z,23.77
2022-12-19T07:55:33.809Z,25.67
2022-12-19T07:58:00.854Z,25.20
2022-12-19T08:00:27.843Z,25.33
2022-12-19T08:02:54.938Z,23.30
2022-12-19T08:05:24.140Z,25.20
2022-12-19T08:07:54.204Z,23.87
2022-12-19T08:10:23.135Z,26.37
2022-12-19T08:12:50.173Z,26.73
2022-12-19T08:15:17.613Z,27.93
2022-12-19T08:17:44.668Z,24.67
2022-12-19T08:20:12.478Z,28.20
2022-12-19T08:22:39.515Z,23.80
2022-12-19T08:25:08.092Z,27.10
2022-12-19T08:27:35.864Z,27.87
2022-12-19T08:30:03.803Z,30.40
2022-12-19T08:32:30.706Z,26.50
2022-12-19T08:34:57.669Z,25.70
2022-12-19T08:37:24.584Z,26.20
2022-12-19T08:39:51.694Z,29.90
2022-12-19T08:42:18.692Z,24.50
2022-12-19T08:44:46.160Z,24.07
2022-12-19T08:47:13.152Z,27.87
2022-12-19T08:49:40.535Z,25.80
2022-12-19T08:52:07.524Z,24.23
2022-12-19T08:54:34.622Z,25.50
2022-12-19T08:57:01.545Z,24.17
2022-12-19T08:59:31.533Z,24.30
2022-12-19T09:02:00.955Z,26.07
2022-12-19T09:06:02.560Z,23.63
2022-12-19T09:07:17.123Z,24.53
2022-12-19T09:09:45.533Z,25.17
2022-12-19T09:12:14.084Z,26.63
2022-12-19T09:14:41.210Z,27.97
2022-12-19T09:17:08.998Z,28.27
2022-12-19T09:19:35.931Z,29.20
2022-12-19T09:22:02.987Z,27.37
2022-12-19T09:24:30.148Z,24.97
2022-12-19T09:26:57.086Z,25.57
2022-12-19T09:29:30.894Z,26.90
2022-12-19T09:32:02.062Z,24.53
2022-12-19T09:34:38.033Z,23.33
2022-12-19T09:37:16.750Z,20.30
2022-12-19T09:39:49.104Z,22.67
2022-12-19T09:42:40.552Z,24.93
2022-12-19T09:45:44.601Z,22.07
2022-12-19T09:48:24.712Z,24.70
2022-12-19T09:51:12.411Z,23.33
2022-12-19T09:54:06.611Z,23.13
2022-12-19T09:56:45.514Z,23.70
2022-12-19T09:59:28.272Z,22.20
2022-12-19T10:02:59.256Z,21.13
2022-12-19T10:07:12.593Z,23.17
2022-12-19T10:09:26.324Z,23.13
2022-12-19T10:12:46.248Z,24.87
2022-12-19T10:15:12.653Z,22.10
2022-12-19T10:18:17.598Z,25.47
2022-12-19T10:21:50.728Z,25.03
2022-12-19T10:24:35.113Z,21.40
2022-12-19T10:27:20.910Z,21.77
2022-12-19T10:30:01.726Z,24.20
2022-12-19T10:32:59.978Z,22.33
2022-12-19T10:35:43.425Z,22.43
2022-12-19T10:38:31.851Z,21.30
2022-12-19T10:41:28.589Z,24.53
2022-12-19T10:44:10.395Z,22.47
2022-12-19T10:46:50.062Z,21.00
2022-12-19T10:49:25.437Z,21.50
2022-12-19T10:52:04.789Z,21.27
2022-12-19T10:54:37.795Z,22.03
2022-12-19T10:57:20.220Z,21.33
2022-12-19T11:00:04.266Z,22.63
2022-12-19T11:02:47.565Z,19.63
2022-12-19T11:05:27.703Z,19.20
2022-12-19T11:08:27.751Z,20.67
2022-12-19T11:12:38.867Z,21.20
2022-12-19T11:19:57.872Z,19.67
2022-12-19T11:22:40.074Z,18.30
2022-12-19T11:29:32.576Z,22.67
2022-12-19T11:29:42.049Z,22.93
2022-12-19T11:30:38.646Z,21.13
2022-12-19T11:30:43.365Z,24.00
2022-12-19T11:32:31.487Z,21.50
2022-12-19T11:34:21.601Z,19.60
2022-12-19T11:37:26.905Z,22.43
2022-12-19T11:40:02.561Z,22.57
2022-12-19T11:43:41.452Z,22.30
2022-12-19T11:46:28.462Z,21.90
2022-12-19T11:49:16.486Z,20.93
2022-12-19T11:52:04.400Z,22.90
2022-12-19T11:54:48.271Z,21.60
2022-12-19T11:57:16.915Z,20.80
2022-12-19T11:59:43.917Z,22.93
2022-12-19T12:02:32.072Z,23.70
2022-12-19T12:05:17.160Z,21.73
2022-12-19T12:12:06.161Z,18.17
2022-12-19T12:18:28.120Z,24.53
2022-12-19T12:20:03.409Z,21.20
2022-12-19T12:31:38.595Z,21.97
2022-12-19T12:31:39.809Z,19.60
2022-12-19T12:31:40.620Z,20.40
2022-12-19T12:32:00.730Z,22.53
2022-12-19T12:32:05.580Z,23.80
2022-12-19T12:35:30.455Z,21.93
2022-12-19T12:39:41.421Z,24.30
2022-12-19T12:42:36.583Z,21.43
2022-12-19T12:45:36.916Z,21.70
2022-12-19T12:48:24.497Z,24.20
2022-12-19T12:50:55.355Z,21.70
2022-12-19T12:53:34.596Z,25.80
2022-12-19T12:56:06.598Z,21.77
2022-12-19T12:58:50.209Z,23.53
2022-12-19T13:01:30.428Z,18.90
2022-12-19T13:04:20.405Z,26.00
2022-12-19T13:06:50.398Z,22.50
2022-12-19T13:09:35.634Z,23.40
2022-12-19T13:12:46.580Z,25.33
2022-12-19T13:15:31.836Z,21.03
2022-12-19T13:18:11.704Z,23.90
2022-12-19T13:20:47.986Z,20.93
2022-12-19T13:23:35.123Z,22.40
2022-12-19T13:26:02.595Z,21.57
2022-12-19T13:28:29.542Z,19.60
2022-12-19T13:31:20.894Z,20.40
2022-12-19T13:33:54.717Z,25.57
2022-12-19T13:39:59.203Z,22.67
2022-12-19T13:40:08.769Z,21.80
2022-12-19T13:43:09.949Z,17.50
2022-12-19T13:45:42.581Z,22.40
2022-12-19T13:48:17.945Z,22.00
2022-12-19T13:50:49.474Z,21.37
2022-12-19T13:53:26.442Z,23.80
2022-12-19T13:56:05.660Z,22.17
2022-12-19T13:59:00.047Z,26.13
2022-12-19T14:01:34.282Z,22.63
2022-12-19T14:04:25.157Z,21.47
2022-12-19T14:06:58.883Z,23.20
2022-12-19T14:11:23.349Z,25.70
2022-12-19T14:13:49.316Z,24.10
2022-12-19T14:15:42.419Z,22.43
2022-12-19T14:18:43.737Z,35.57
2022-12-19T14:22:07.141Z,23.33
2022-12-19T14:24:25.367Z,21.67
2022-12-19T14:28:26.668Z,23.13
2022-12-19T14:30:28.033Z,23.47
2022-12-19T14:33:46.387Z,21.63
2022-12-19T14:36:12.519Z,21.30
2022-12-19T14:39:23.966Z,18.57
2022-12-19T14:41:58.951Z,20.07
2022-12-19T14:52:35.101Z,20.33
2022-12-19T14:54:01.841Z,21.70
2022-12-19T14:54:05.325Z,23.30
2022-12-19T14:54:47.650Z,23.60
2022-12-19T15:48:51.640Z,27.00
2022-12-19T15:51:18.680Z,26.80
2022-12-19T15:53:45.923Z,27.37
2022-12-19T15:56:28.186Z,24.23
2022-12-19T15:58:57.863Z,26.17
2022-12-19T16:01:26.890Z,28.17
2022-12-19T16:03:56.124Z,24.03
2022-12-19T16:06:23.566Z,22.27
2022-12-19T16:08:50.582Z,23.80
2022-12-19T16:11:24.689Z,23.60
2022-12-19T16:13:57.394Z,23.60
2022-12-19T16:16:25.457Z,22.47
2022-12-19T16:18:52.697Z,25.87
2022-12-19T16:21:33.512Z,28.50
2022-12-19T16:24:01.539Z,27.03
2022-12-19T16:26:35.646Z,23.57
2022-12-19T16:29:03.063Z,26.77
2022-12-19T16:31:30.306Z,26.40
2022-12-19T16:33:57.600Z,27.50
2022-12-19T16:36:27.328Z,25.07
2022-12-19T16:38:54.352Z,24.37
2022-12-19T16:41:26.016Z,27.83
2022-12-19T16:43:53.162Z,27.70
2022-12-19T16:46:32.554Z,27.30
2022-12-19T16:49:00.413Z,28.43
2022-12-19T16:51:28.671Z,26.90
2022-12-19T16:54:00.826Z,26.03
2022-12-19T16:56:35.933Z,28.50
2022-12-19T16:59:27.718Z,38.03
2022-12-19T17:01:55.020Z,34.87
2022-12-19T17:04:25.117Z,27.50
2022-12-19T17:06:54.380Z,24.00
2022-12-19T17:09:25.261Z,25.80
2022-12-19T17:11:57.060Z,27.30
2022-12-19T17:14:28.397Z,27.30
2022-12-19T17:17:00.733Z,28.83
2022-12-19T17:19:35.455Z,28.33
2022-12-19T17:22:02.604Z,28.77
2022-12-19T17:24:29.671Z,26.90
2022-12-19T17:26:56.706Z,29.70
2022-12-19T17:29:23.846Z,27.57
2022-12-19T17:31:51.173Z,27.60
2022-12-19T17:34:32.857Z,28.80
2022-12-19T17:37:02.992Z,29.00
2022-12-19T17:39:33.314Z,28.07
2022-12-19T17:42:24.347Z,27.97
2022-12-19T17:44:51.950Z,26.83
2022-12-19T17:47:21.379Z,25.23
2022-12-19T17:49:49.446Z,26.50
2022-12-19T17:52:19.397Z,24.77
2022-12-19T17:54:46.978Z,26.63
2022-12-19T17:57:16.181Z,26.50
2022-12-19T17:59:43.238Z,27.10
2022-12-19T18:02:28.292Z,28.10
2022-12-19T18:04:55.703Z,25.60
2022-12-19T18:07:22.756Z,28.67
2022-12-19T18:09:49.778Z,26.83
2022-12-19T18:12:16.826Z,27.70
2022-12-19T18:14:43.730Z,25.97
2022-12-19T18:17:19.520Z,28.10
2022-12-19T18:19:46.555Z,27.27
2022-12-19T18:22:14.799Z,27.67
2022-12-19T18:24:42.267Z,27.57
2022-12-19T18:27:09.791Z,28.30
2022-12-19T18:29:37.338Z,30.73
2022-12-19T18:32:04.664Z,27.40
2022-12-19T18:34:33.946Z,27.63
2022-12-19T18:37:02.206Z,29.07
2022-12-19T18:39:29.661Z,27.53
2022-12-19T18:41:56.746Z,32.17
2022-12-19T18:44:23.944Z,28.17
2022-12-19T18:46:52.230Z,28.60
2022-12-19T18:49:20.655Z,32.40
2022-12-19T18:51:48.712Z,31.93
2022-12-19T18:54:22.114Z,30.37
2022-12-19T18:56:49.213Z,26.87
2022-12-19T18:59:16.195Z,31.33
2022-12-19T19:01:47.169Z,28.83
2022-12-19T19:04:18.256Z,28.50
2022-12-19T19:06:51.713Z,29.23
2022-12-19T19:09:21.313Z,30.90
2022-12-19T19:11:48.490Z,30.53
2022-12-19T19:14:15.452Z,29.40
2022-12-19T19:16:42.839Z,27.60
2022-12-19T19:19:15.313Z,29.00
2022-12-19T19:21:42.914Z,29.20
2022-12-19T19:24:18.000Z,26.10
2022-12-19T19:26:45.595Z,29.13
2022-12-19T19:29:15.862Z,29.10
2022-12-19T19:31:46.236Z,25.90
2022-12-19T19:34:23.257Z,27.90
2022-12-19T19:36:55.046Z,30.00
2022-12-19T19:39:23.552Z,27.20
2022-12-19T19:41:50.785Z,27.10
2022-12-19T19:44:17.936Z,23.90
2022-12-19T19:46:45.338Z,29.03
2022-12-19T19:49:12.594Z,26.40
2022-12-19T19:51:39.940Z,26.20
2022-12-19T19:54:06.976Z,27.40
2022-12-19T19:56:34.850Z,26.17
2022-12-19T19:59:01.844Z,26.97
2022-12-19T20:01:29.255Z,27.57
2022-12-19T20:03:57.848Z,29.77
2022-12-19T20:06:25.254Z,27.87
2022-12-19T20:08:53.487Z,28.70
2022-12-19T20:11:22.080Z,28.47
2022-12-19T20:13:50.204Z,27.50
2022-12-19T20:16:19.356Z,26.57
2022-12-19T20:18:53.175Z,27.83
2022-12-19T20:21:22.222Z,26.70
2022-12-19T20:23:50.435Z,31.63
2022-12-19T20:26:18.768Z,30.07
2022-12-19T20:28:49.373Z,27.33
2022-12-19T20:31:23.629Z,28.53
2022-12-19T20:33:53.314Z,26.20
2022-12-19T20:36:21.974Z,25.90
2022-12-19T20:38:51.297Z,29.70
2022-12-19T20:41:19.978Z,29.20
2022-12-19T20:43:48.499Z,26.90
2022-12-19T20:46:20.350Z,28.40
2022-12-19T20:48:49.753Z,30.27
2022-12-19T20:51:21.092Z,31.50
2022-12-19T20:53:51.778Z,29.97
2022-12-19T20:56:23.466Z,32.37
2022-12-19T20:58:51.966Z,28.93
2022-12-19T21:01:23.702Z,28.83
2022-12-19T21:03:52.018Z,31.00
2022-12-19T21:06:21.338Z,31.37
2022-12-19T21:08:50.927Z,30.93
2022-12-19T21:11:18.501Z,31.77
2022-12-19T21:13:45.697Z,30.93
2022-12-19T21:16:19.828Z,31.30
2022-12-19T21:18:50.303Z,30.47
2022-12-19T21:21:22.861Z,28.80
2022-12-19T21:23:51.552Z,33.73
2022-12-19T21:26:22.681Z,28.80
2022-12-19T21:28:49.788Z,33.00
2022-12-19T21:31:30.629Z,30.57
2022-12-19T21:34:00.387Z,32.50
2022-12-19T21:36:30.525Z,30.37
2022-12-19T21:39:02.130Z,31.00
2022-12-19T21:41:30.479Z,28.77
2022-12-19T21:43:58.504Z,30.77
2022-12-19T21:46:29.313Z,28.37
2022-12-19T21:48:57.902Z,28.77
2022-12-19T21:51:28.673Z,28.40
2022-12-19T21:54:01.812Z,31.93
2022-12-19T21:56:36.115Z,30.20
2022-12-19T21:59:12.650Z,30.20
2022-12-19T22:01:41.480Z,33.10
2022-12-19T22:04:15.114Z,29.80
2022-12-19T22:06:42.458Z,29.90
2022-12-19T22:09:15.805Z,32.03
2022-12-19T22:11:44.120Z,32.33
2022-12-19T22:14:15.697Z,30.20
2022-12-19T22:16:43.521Z,33.30
2022-12-19T22:19:14.522Z,29.90
2022-12-19T22:21:41.769Z,28.60
2022-12-19T22:24:12.795Z,31.17
2022-12-19T22:26:40.937Z,30.37
2022-12-19T22:29:15.853Z,32.00
2022-12-19T22:31:43.989Z,28.90
2022-12-19T22:34:18.262Z,28.20
2022-12-19T22:36:47.426Z,31.10
2022-12-19T22:39:19.728Z,29.73
2022-12-19T22:41:47.019Z,32.20
2022-12-19T22:44:24.359Z,28.77
2022-12-19T22:46:52.200Z,31.17
2022-12-19T22:49:19.339Z,29.10
2022-12-19T22:51:46.628Z,31.20
2022-12-19T22:54:14.224Z,34.07
2022-12-19T22:56:42.245Z,31.60
2022-12-19T22:59:11.632Z,31.10
2022-12-19T23:01:43.352Z,30.73
2022-12-19T23:04:15.600Z,31.33
2022-12-19T23:06:43.746Z,32.47
2022-12-19T23:09:16.336Z,31.63
2022-12-19T23:11:48.098Z,31.13
2022-12-19T23:14:18.182Z,30.00
2022-12-19T23:16:45.722Z,32.00
2022-12-19T23:19:16.169Z,30.87
2022-12-19T23:21:43.471Z,28.60
2022-12-19T23:24:11.679Z,30.50
2022-12-19T23:26:39.091Z,28.67
2022-12-19T23:29:10.788Z,29.50
2022-12-19T23:31:44.963Z,30.00
2022-12-19T23:34:12.554Z,28.80
2022-12-19T23:39:27.021Z,32.90
2022-12-19T23:41:54.061Z,30.73
2022-12-19T23:44:21.251Z,33.10
2022-12-19T23:46:48.341Z,30.93
2022-12-19T23:49:16.014Z,28.13
2022-12-19T23:51:43.153Z,29.60
2022-12-19T23:54:10.284Z,24.60
2022-12-19T23:56:38.142Z,27.20
2022-12-19T23:59:05.433Z,31.10
